Terminal Aerodrome Forecast
Issued by NWS

Home | Current Version | Previous Version | Text Only | Print | Product List | Glossary On
Versions: 1 2 3 4 5 6 7 8 9 10 11 12 13 14 15 16 17 18 19 20 21 22 23 24 25
000
FTUS46 KSEW 231600 AAB
TAFHQM
TAF AMD
KHQM 231605Z 2316/2412 26006KT P6SM SCT009 OVC016
     FM232000 26008KT P6SM VCSH SCT010 OVC020
     FM240600 26008KT P6SM OVC007=

USA.gov is the U.S. government's official web portal to all federal, state and local government web resources and services.